Portada
METAR-TAF:

METAR-TAF

Aeroports :

Manistique, Michigan, Estats Units d'Amèrica

Schoolcraft County Airport

latitud: 45-58-29N, longitud: 086-10-19W, altitud: 209 m

Observació

L'informe es va fer fa 15 hores i 55 minuts, a les 15:15 UTC
Vent 5 kt del Est
Temperatura -1°C
Humitat 93%
Pressió 1008 hPa
Visibilitat: 16.1 km
Cel cobert a una alçada de 300 ft
desconegut

METAR: KISQ 201515Z AUTO 10005KT 10SM UP OVC003 M01/M02 A2978 RMK AO2 T10111020

Hora: 02:10 (07:10 UTC)


TAF: manca

Observacions i pronòstics meteorològics de més de 4000 aeroports (METAR i TAF).

Les estacions disponibles són els punts grocs i vermells al mapa.

Posi el ratolí al punt desitjat per veure el nom de l'estació.

Feu clic per veure les observacions i els pronòstics meteorològics.

Per canviar el mapa: feu clic els botons verds amb una creu de color negre per apropar; al botó verd amb un guió per allunyar la imatge; o en les fletxes verdes per a mapes adjacents.


METAR-TAF: